createdAt,value
2022-08-27T00:01:34.057Z,11.98
2022-08-27T00:04:37.580Z,11.05
2022-08-27T00:07:40.697Z,9.80
2022-08-27T00:10:42.886Z,11.13
2022-08-27T00:13:45.939Z,12.00
2022-08-27T00:16:48.417Z,10.93
2022-08-27T00:19:50.515Z,10.90
2022-08-27T00:22:53.890Z,11.60
2022-08-27T00:25:56.115Z,9.63
2022-08-27T00:28:59.670Z,9.13
2022-08-27T00:32:01.836Z,10.75
2022-08-27T00:35:04.492Z,10.48
2022-08-27T00:38:07.673Z,9.07
2022-08-27T00:41:12.998Z,9.73
2022-08-27T00:44:21.524Z,9.13
2022-08-27T00:47:26.918Z,10.30
2022-08-27T00:50:35.868Z,9.35
2022-08-27T00:53:44.845Z,10.38
2022-08-27T00:56:50.618Z,9.02
2022-08-27T00:59:54.979Z,10.23
2022-08-27T01:02:57.410Z,9.02
2022-08-27T01:06:02.068Z,9.65
2022-08-27T01:09:17.879Z,10.68
2022-08-27T01:12:21.943Z,12.68
2022-08-27T01:15:28.515Z,9.55
2022-08-27T01:18:34.430Z,9.68
2022-08-27T01:21:42.685Z,10.30
2022-08-27T01:24:47.960Z,8.73
2022-08-27T01:27:52.980Z,8.55
2022-08-27T01:30:55.127Z,9.98
2022-08-27T01:34:01.144Z,9.32
2022-08-27T01:37:05.984Z,9.35
2022-08-27T01:40:09.403Z,8.57
2022-08-27T01:43:12.443Z,11.20
2022-08-27T01:46:14.697Z,9.48
2022-08-27T01:49:18.245Z,10.27
2022-08-27T01:52:23.295Z,10.90
2022-08-27T01:55:26.489Z,10.40
2022-08-27T01:58:30.647Z,10.80
2022-08-27T02:01:35.666Z,9.63
2022-08-27T02:04:38.350Z,10.32
2022-08-27T02:07:42.004Z,9.80
2022-08-27T02:10:45.969Z,10.35
2022-08-27T02:13:48.024Z,11.13
2022-08-27T02:16:52.712Z,10.85
2022-08-27T02:19:55.116Z,10.00
2022-08-27T02:22:57.654Z,9.00
2022-08-27T02:25:59.814Z,9.95
2022-08-27T02:29:03.851Z,10.27
2022-08-27T02:32:06.963Z,10.70
2022-08-27T02:35:11.071Z,9.88
2022-08-27T02:38:14.162Z,10.70
2022-08-27T02:41:16.905Z,10.35
2022-08-27T02:44:19.007Z,9.10
2022-08-27T02:47:21.189Z,10.50
2022-08-27T02:50:27.372Z,10.93
2022-08-27T02:53:29.886Z,11.13
2022-08-27T02:56:32.281Z,9.88
2022-08-27T02:59:34.403Z,8.75
2022-08-27T03:02:37.366Z,8.85
2022-08-27T03:05:40.385Z,10.77
2022-08-27T03:08:53.393Z,10.82
2022-08-27T03:11:56.910Z,9.60
2022-08-27T03:14:59.508Z,9.93
2022-08-27T03:18:20.036Z,10.23
2022-08-27T03:21:25.616Z,10.43
2022-08-27T03:24:27.826Z,9.73
2022-08-27T03:27:31.928Z,10.70
2022-08-27T03:30:34.102Z,10.55
2022-08-27T03:33:38.676Z,11.52
2022-08-27T03:36:40.716Z,10.88
2022-08-27T03:39:42.774Z,11.52
2022-08-27T03:42:44.939Z,11.93
2022-08-27T03:45:48.453Z,11.25
2022-08-27T03:49:03.636Z,10.70
2022-08-27T03:52:07.065Z,9.88
2022-08-27T03:55:09.718Z,10.10
2022-08-27T03:58:12.955Z,10.75
2022-08-27T04:01:15.148Z,9.98
2022-08-27T04:04:17.352Z,11.55
2022-08-27T04:07:20.150Z,12.25
2022-08-27T04:10:22.388Z,9.73
2022-08-27T04:13:25.113Z,11.55
2022-08-27T04:16:27.435Z,11.18
2022-08-27T04:19:32.435Z,11.77
2022-08-27T04:22:34.887Z,11.50
2022-08-27T04:25:40.622Z,11.05
2022-08-27T04:28:42.793Z,10.68
2022-08-27T04:31:50.892Z,9.50
2022-08-27T04:34:57.901Z,9.98
2022-08-27T04:38:00.251Z,10.63
2022-08-27T04:41:20.026Z,9.27
2022-08-27T04:44:22.820Z,9.52
2022-08-27T04:47:25.019Z,10.60
2022-08-27T04:50:27.075Z,10.25
2022-08-27T04:53:29.125Z,9.95
2022-08-27T04:56:31.626Z,10.55
2022-08-27T04:59:35.086Z,11.75
2022-08-27T05:02:37.203Z,10.15
2022-08-27T05:05:41.612Z,9.70
2022-08-27T05:08:45.167Z,9.43
2022-08-27T05:11:47.711Z,9.77
2022-08-27T05:14:50.167Z,9.63
2022-08-27T05:17:54.948Z,9.05
2022-08-27T05:20:58.458Z,9.50
2022-08-27T05:24:02.367Z,10.40
2022-08-27T05:27:04.606Z,11.23
2022-08-27T05:30:07.355Z,10.13
2022-08-27T05:33:10.422Z,8.88
2022-08-27T05:36:21.874Z,9.45
2022-08-27T05:39:23.954Z,10.40
2022-08-27T05:42:26.558Z,10.98
2022-08-27T05:45:29.181Z,11.80
2022-08-27T05:48:31.818Z,13.20
2022-08-27T05:51:36.312Z,13.07
2022-08-27T05:54:39.925Z,13.10
2022-08-27T05:57:42.290Z,12.75
2022-08-27T06:01:05.972Z,13.65
2022-08-27T06:04:11.690Z,15.40
2022-08-27T06:07:20.241Z,15.10
2022-08-27T06:10:22.325Z,14.73
2022-08-27T06:13:24.678Z,14.52
2022-08-27T06:16:27.672Z,15.73
2022-08-27T06:19:30.681Z,15.13
2022-08-27T06:22:32.826Z,15.77
2022-08-27T06:25:34.947Z,16.35
2022-08-27T06:28:41.052Z,16.70
2022-08-27T06:31:43.329Z,14.80
2022-08-27T06:34:45.403Z,12.88
2022-08-27T06:37:50.558Z,16.17
2022-08-27T06:40:53.085Z,14.50
2022-08-27T06:43:56.636Z,16.13
2022-08-27T06:46:59.628Z,14.93
2022-08-27T06:50:01.865Z,15.25
2022-08-27T06:53:04.570Z,11.90
2022-08-27T06:56:07.327Z,14.80
2022-08-27T06:59:12.343Z,17.05
2022-08-27T07:02:15.770Z,16.40
2022-08-27T07:05:19.173Z,16.83
2022-08-27T07:08:21.414Z,15.83
2022-08-27T07:11:24.329Z,14.57
2022-08-27T07:14:26.468Z,13.93
2022-08-27T07:17:28.554Z,15.45
2022-08-27T07:20:32.043Z,12.77
2022-08-27T07:23:35.701Z,12.18
2022-08-27T07:26:40.103Z,9.85
2022-08-27T07:32:46.081Z,8.55
2022-08-27T07:35:49.521Z,7.93
2022-08-27T07:39:00.890Z,9.38
2022-08-27T07:42:22.252Z,9.48
2022-08-27T07:45:24.332Z,8.77
2022-08-27T07:48:26.586Z,6.85
2022-08-27T07:51:32.823Z,9.70
2022-08-27T07:54:34.997Z,8.73
2022-08-27T07:57:37.117Z,9.55
2022-08-27T08:00:43.378Z,7.93
2022-08-27T08:03:45.633Z,12.10
2022-08-27T08:06:48.547Z,6.63
2022-08-27T08:09:50.584Z,7.80
2022-08-27T08:12:52.988Z,9.18
2022-08-27T08:15:56.994Z,7.70
2022-08-27T08:19:00.433Z,13.93
2022-08-27T08:22:05.700Z,17.65
2022-08-27T08:25:08.736Z,10.02
2022-08-27T08:28:15.070Z,10.98
2022-08-27T08:31:17.366Z,15.10
2022-08-27T08:34:20.332Z,14.70
2022-08-27T08:37:24.217Z,10.85
2022-08-27T08:40:36.289Z,18.20
2022-08-27T08:43:51.630Z,19.10
2022-08-27T08:47:05.057Z,17.48
2022-08-27T08:50:36.735Z,17.35
2022-08-27T08:53:55.342Z,18.98
2022-08-27T08:57:33.540Z,16.40
2022-08-27T09:00:37.082Z,14.38
2022-08-27T09:03:42.268Z,14.57
2022-08-27T09:07:04.316Z,17.20
2022-08-27T09:10:48.625Z,16.75
2022-08-27T09:13:57.164Z,16.50
2022-08-27T09:17:01.389Z,18.08
2022-08-27T09:20:05.610Z,16.85
2022-08-27T09:23:24.450Z,15.77
2022-08-27T09:26:31.095Z,15.13
2022-08-27T09:29:34.222Z,15.48
2022-08-27T09:32:36.507Z,13.48
2022-08-27T09:35:44.917Z,12.73
2022-08-27T09:38:58.496Z,16.25
2022-08-27T09:42:02.885Z,14.13
2022-08-27T09:45:21.992Z,13.13
2022-08-27T09:48:32.982Z,11.70
2022-08-27T09:51:35.738Z,13.23
2022-08-27T09:54:45.607Z,14.52
2022-08-27T09:57:48.090Z,11.57
2022-08-27T10:01:00.479Z,14.40
2022-08-27T10:04:17.469Z,13.52
2022-08-27T10:07:27.666Z,13.43
2022-08-27T10:10:41.600Z,14.65
2022-08-27T10:13:52.569Z,12.13
2022-08-27T10:17:25.947Z,12.43
2022-08-27T10:21:05.020Z,12.82
2022-08-27T10:24:32.488Z,14.30
2022-08-27T10:28:07.985Z,12.90
2022-08-27T10:31:25.963Z,12.77
2022-08-27T10:34:55.666Z,15.35
2022-08-27T10:37:59.554Z,16.95
2022-08-27T10:41:10.286Z,16.98
2022-08-27T10:44:48.727Z,20.08
2022-08-27T10:48:01.256Z,15.73
2022-08-27T10:51:16.593Z,17.13
2022-08-27T10:54:37.803Z,14.38
2022-08-27T10:58:15.544Z,13.90
2022-08-27T11:01:38.683Z,16.10
2022-08-27T11:04:50.047Z,17.50
2022-08-27T11:07:59.689Z,15.68
2022-08-27T11:14:56.925Z,16.67
2022-08-27T11:18:22.063Z,15.13
2022-08-27T11:21:43.827Z,12.77
2022-08-27T11:25:03.958Z,15.82
2022-08-27T11:28:10.439Z,15.95
2022-08-27T11:31:25.009Z,13.82
2022-08-27T11:34:53.797Z,16.17
2022-08-27T11:38:44.147Z,15.25
2022-08-27T11:42:15.468Z,14.52
2022-08-27T11:45:24.758Z,14.00
2022-08-27T11:48:33.447Z,13.43
2022-08-27T11:51:38.572Z,13.82
2022-08-27T11:54:50.698Z,13.50
2022-08-27T11:58:11.079Z,13.95
2022-08-27T12:01:31.682Z,12.90
2022-08-27T12:04:37.313Z,12.43
2022-08-27T12:07:45.213Z,12.18
2022-08-27T12:11:05.234Z,11.73
2022-08-27T12:14:43.309Z,12.85
2022-08-27T12:18:37.339Z,10.40
2022-08-27T12:24:59.269Z,10.65
2022-08-27T12:28:06.818Z,10.52
2022-08-27T12:31:09.798Z,9.95
2022-08-27T12:34:32.988Z,10.47
2022-08-27T12:37:48.127Z,11.70
2022-08-27T12:40:52.129Z,9.90
2022-08-27T12:44:31.625Z,11.70
2022-08-27T12:47:40.531Z,9.98
2022-08-27T12:50:50.804Z,10.88
2022-08-27T12:54:24.487Z,10.68
2022-08-27T12:58:15.350Z,13.27
2022-08-27T13:01:26.968Z,10.95
2022-08-27T13:04:31.464Z,10.68
2022-08-27T13:07:41.202Z,11.05
2022-08-27T13:10:43.293Z,11.15
2022-08-27T13:13:46.416Z,12.77
2022-08-27T13:17:03.361Z,10.27
2022-08-27T13:20:13.479Z,10.65
2022-08-27T13:23:22.670Z,10.15
2022-08-27T13:26:29.681Z,10.60
2022-08-27T13:29:32.323Z,10.45
2022-08-27T13:32:36.236Z,10.00
2022-08-27T13:38:49.921Z,9.45
2022-08-27T13:41:53.713Z,8.55
2022-08-27T13:45:02.838Z,9.07
2022-08-27T13:48:06.292Z,8.18
2022-08-27T13:51:09.317Z,9.00
2022-08-27T13:54:13.969Z,7.63
2022-08-27T13:57:30.350Z,8.25
2022-08-27T14:00:33.925Z,8.30
2022-08-27T14:03:45.865Z,7.78
2022-08-27T14:06:48.709Z,7.47
2022-08-27T14:09:55.065Z,5.90
2022-08-27T14:13:00.734Z,6.25
2022-08-27T14:16:15.301Z,5.35
2022-08-27T14:19:43.616Z,6.32
2022-08-27T14:22:45.719Z,5.30
2022-08-27T14:25:48.140Z,5.78
2022-08-27T14:28:51.075Z,7.68
2022-08-27T14:31:53.173Z,15.80
2022-08-27T14:34:55.489Z,8.07
2022-08-27T14:37:58.839Z,5.25
2022-08-27T14:41:00.945Z,5.40
2022-08-27T14:44:03.479Z,6.50
2022-08-27T14:47:09.653Z,6.00
2022-08-27T14:50:13.221Z,4.97
2022-08-27T14:53:15.532Z,6.45
2022-08-27T14:56:18.381Z,4.60
2022-08-27T14:59:20.735Z,4.53
2022-08-27T15:02:23.798Z,4.40
2022-08-27T15:08:32.043Z,3.20
2022-08-27T15:11:37.267Z,3.25
2022-08-27T15:14:43.403Z,3.40
2022-08-27T15:17:45.876Z,5.20
2022-08-27T15:20:48.355Z,28.45
2022-08-27T15:23:54.506Z,4.18
2022-08-27T15:27:00.290Z,4.32
2022-08-27T15:30:02.404Z,5.43
2022-08-27T15:33:08.841Z,3.47
2022-08-27T15:36:11.473Z,6.78
2022-08-27T15:39:13.553Z,4.72
2022-08-27T15:42:16.209Z,5.65
2022-08-27T15:45:18.567Z,3.85
2022-08-27T15:48:21.322Z,3.88
2022-08-27T15:51:41.679Z,3.22
2022-08-27T15:54:44.949Z,4.35
2022-08-27T15:57:47.259Z,4.53
2022-08-27T16:00:49.366Z,6.07
2022-08-27T16:04:01.162Z,6.50
2022-08-27T16:07:03.354Z,7.22
2022-08-27T16:10:07.305Z,5.35
2022-08-27T16:13:09.545Z,8.82
2022-08-27T16:16:12.587Z,7.45
2022-08-27T16:19:16.715Z,15.47
2022-08-27T16:22:19.361Z,12.13
2022-08-27T16:25:23.461Z,6.40
2022-08-27T16:28:26.185Z,8.25
2022-08-27T16:31:28.731Z,8.05
2022-08-27T16:34:34.764Z,6.72
2022-08-27T16:37:36.824Z,7.45
2022-08-27T16:40:46.884Z,5.78
2022-08-27T16:43:50.218Z,5.68
2022-08-27T16:46:53.349Z,4.75
2022-08-27T16:50:22.886Z,5.40
2022-08-27T16:53:28.875Z,4.82
2022-08-27T16:56:32.835Z,4.40
2022-08-27T16:59:38.616Z,4.35
2022-08-27T17:02:41.128Z,4.28
2022-08-27T17:05:43.176Z,5.85
2022-08-27T17:08:48.074Z,4.55
2022-08-27T17:11:57.112Z,4.22
2022-08-27T17:15:00.912Z,4.60
2022-08-27T17:18:03.978Z,4.68
2022-08-27T17:21:06.288Z,4.87
2022-08-27T17:24:10.914Z,5.43
2022-08-27T17:27:15.130Z,4.47
2022-08-27T17:30:17.261Z,4.70
2022-08-27T17:33:34.241Z,5.00
2022-08-27T17:36:36.572Z,4.57
2022-08-27T17:39:46.266Z,5.85
2022-08-27T17:42:49.089Z,4.25
2022-08-27T17:45:52.476Z,4.60
2022-08-27T17:48:59.801Z,4.50
2022-08-27T17:52:06.931Z,4.32
2022-08-27T17:55:09.323Z,4.20
2022-08-27T17:58:11.923Z,5.47
2022-08-27T18:01:17.543Z,4.05
2022-08-27T18:04:20.709Z,4.97
2022-08-27T18:07:23.072Z,4.05
2022-08-27T18:10:27.195Z,4.60
2022-08-27T18:16:33.189Z,5.50
2022-08-27T18:19:35.445Z,4.70
2022-08-27T18:22:40.746Z,4.78
2022-08-27T18:25:44.479Z,4.93
2022-08-27T18:28:48.586Z,4.55
2022-08-27T18:31:50.825Z,4.13
2022-08-27T18:34:53.665Z,5.43
2022-08-27T18:37:55.844Z,5.00
2022-08-27T18:40:58.979Z,4.88
2022-08-27T18:44:01.873Z,5.28
2022-08-27T18:47:04.472Z,4.57
2022-08-27T18:50:09.548Z,5.22
2022-08-27T18:53:20.595Z,5.55
2022-08-27T18:56:22.749Z,4.95
2022-08-27T18:59:27.393Z,5.93
2022-08-27T19:02:30.051Z,7.32
2022-08-27T19:05:32.336Z,6.75
2022-08-27T19:08:34.682Z,6.15
2022-08-27T19:11:36.782Z,8.88
2022-08-27T19:14:39.208Z,7.78
2022-08-27T19:17:44.049Z,5.78
2022-08-27T19:20:46.478Z,6.88
2022-08-27T19:23:51.178Z,7.28
2022-08-27T19:26:54.548Z,7.65
2022-08-27T19:29:56.815Z,7.50
2022-08-27T19:32:59.012Z,8.15
2022-08-27T19:36:03.415Z,6.50
2022-08-27T19:39:06.530Z,7.55
2022-08-27T19:42:09.961Z,8.15
2022-08-27T19:45:13.644Z,8.73
2022-08-27T19:48:16.706Z,7.25
2022-08-27T19:51:19.368Z,8.02
2022-08-27T19:54:21.830Z,7.55
2022-08-27T19:57:24.136Z,8.95
2022-08-27T20:00:27.781Z,8.68
2022-08-27T20:03:31.058Z,7.43
2022-08-27T20:06:35.202Z,7.82
2022-08-27T20:09:37.327Z,7.40
2022-08-27T20:12:39.428Z,10.85
2022-08-27T20:15:42.402Z,8.77
2022-08-27T20:18:44.455Z,9.10
2022-08-27T20:21:46.713Z,8.85
2022-08-27T20:24:48.903Z,8.73
2022-08-27T20:27:51.993Z,9.95
2022-08-27T20:30:54.112Z,8.60
2022-08-27T20:33:56.595Z,8.73
2022-08-27T20:36:58.939Z,8.60
2022-08-27T20:40:01.091Z,9.15
2022-08-27T20:43:03.329Z,10.05
2022-08-27T20:46:06.634Z,7.55
2022-08-27T20:49:14.102Z,7.50
2022-08-27T20:52:16.164Z,9.30
2022-08-27T20:55:18.988Z,7.55
2022-08-27T20:58:39.704Z,8.38
2022-08-27T21:01:42.769Z,9.13
2022-08-27T21:04:47.255Z,8.95
2022-08-27T21:07:50.941Z,9.70
2022-08-27T21:10:57.026Z,7.75
2022-08-27T21:13:59.319Z,8.70
2022-08-27T21:17:01.528Z,7.70
2022-08-27T21:20:08.399Z,9.27
2022-08-27T21:23:11.786Z,8.68
2022-08-27T21:26:13.992Z,7.27
2022-08-27T21:29:18.721Z,7.93
2022-08-27T21:32:20.833Z,9.80
2022-08-27T21:35:27.493Z,9.55
2022-08-27T21:38:31.064Z,8.98
2022-08-27T21:41:37.186Z,7.88
2022-08-27T21:44:40.257Z,8.80
2022-08-27T21:47:43.503Z,8.55
2022-08-27T21:50:46.247Z,8.98
2022-08-27T21:53:48.669Z,8.45
2022-08-27T21:56:51.122Z,8.60
2022-08-27T21:59:53.417Z,8.57
2022-08-27T22:02:56.462Z,8.18
2022-08-27T22:05:58.648Z,8.13
2022-08-27T22:09:02.191Z,8.07
2022-08-27T22:12:05.283Z,8.48
2022-08-27T22:15:08.801Z,8.43
2022-08-27T22:18:12.042Z,7.88
2022-08-27T22:21:14.219Z,8.20
2022-08-27T22:24:17.910Z,9.35
2022-08-27T22:27:20.678Z,7.13
2022-08-27T22:30:22.983Z,8.63
2022-08-27T22:33:25.035Z,7.95
2022-08-27T22:36:27.378Z,8.27
2022-08-27T22:39:29.941Z,8.80
2022-08-27T22:42:32.801Z,7.72
2022-08-27T22:45:38.106Z,8.88
2022-08-27T22:48:40.374Z,9.70
2022-08-27T22:51:42.582Z,9.13
2022-08-27T22:54:45.857Z,8.45
2022-08-27T22:57:49.510Z,7.37
2022-08-27T23:00:52.639Z,7.80
2022-08-27T23:03:55.301Z,7.00
2022-08-27T23:07:02.019Z,9.00
2022-08-27T23:10:09.129Z,7.55
2022-08-27T23:13:12.758Z,7.47
2022-08-27T23:16:16.592Z,8.98
2022-08-27T23:19:19.207Z,8.85
2022-08-27T23:22:21.512Z,8.70
2022-08-27T23:25:43.712Z,8.25
2022-08-27T23:28:45.847Z,9.32
2022-08-27T23:31:48.194Z,9.25
2022-08-27T23:34:50.675Z,8.73
2022-08-27T23:37:54.102Z,8.93
2022-08-27T23:40:56.509Z,8.67
2022-08-27T23:43:58.704Z,8.75
2022-08-27T23:47:01.225Z,9.40
2022-08-27T23:50:06.921Z,9.02
2022-08-27T23:53:10.165Z,9.30
2022-08-27T23:56:12.708Z,7.97
2022-08-27T23:59:16.205Z,7.75
